Time;durP1;ratioP1;P1;durP2;ratioP2;P2;SDS_P1;SDS_P2;PMS_P1;PMS_P2;Temp;Humidity;BMP_temperature;BMP_pressure;BME280_temperature;BME280_humidity;BME280_pressure;Samples;Min_cycle;Max_cycle;Signal;HPM_P1;HPM_P2
2023/03/26 00:01:04;;;;;;;5.50;2.40;;;;;;;7.74;91.65;99691.08;108362;1254;61264;-70
2023/03/26 00:03:34;;;;;;;5.40;2.10;;;;;;;7.75;91.23;99688.45;105563;1253;61261;-72
2023/03/26 00:06:11;;;;;;;6.70;2.70;;;;;;;7.77;90.52;99693.11;105557;1253;74189;-71
2023/03/26 00:08:40;;;;;;;7.00;2.50;;;;;;;7.81;90.70;99693.08;105813;1254;70989;-70
2023/03/26 00:11:10;;;;;;;7.50;2.80;;;;;;;7.80;89.99;99697.38;106699;1256;73577;-69
2023/03/26 00:13:37;;;;;;;7.30;2.80;;;;;;;7.80;89.95;99703.18;105808;1254;62172;-71
2023/03/26 00:16:05;;;;;;;5.60;2.30;;;;;;;7.80;89.90;99707.15;106872;1258;61132;-70
2023/03/26 00:18:33;;;;;;;5.80;2.60;;;;;;;7.82;89.83;99697.88;106006;1253;73105;-72
2023/03/26 00:21:03;;;;;;;7.80;2.60;;;;;;;7.81;90.00;99707.37;105921;1257;70253;-70
2023/03/26 00:23:33;;;;;;;5.60;2.50;;;;;;;7.82;90.00;99705.35;105689;1255;72007;-72
2023/03/26 00:26:02;;;;;;;5.60;2.70;;;;;;;7.83;89.90;99710.48;105842;1258;62668;-71
2023/03/26 00:28:29;;;;;;;6.60;2.90;;;;;;;7.84;89.80;99707.48;106201;1255;61681;-71
2023/03/26 00:31:01;;;;;;;3.90;2.30;;;;;;;7.86;90.27;99712.04;106480;1253;73708;-72
2023/03/26 00:33:28;;;;;;;6.10;2.90;;;;;;;7.86;90.49;99711.09;107766;1252;71252;-71
2023/03/26 00:35:57;;;;;;;6.70;2.60;;;;;;;7.85;90.70;99708.81;109267;1253;72392;-71
2023/03/26 00:38:25;;;;;;;5.10;2.70;;;;;;;7.86;90.86;99710.11;109049;1253;60170;-71
2023/03/26 00:40:52;;;;;;;6.40;2.90;;;;;;;7.85;90.73;99711.91;109024;1254;60168;-71
2023/03/26 00:43:21;;;;;;;8.10;2.10;;;;;;;7.87;90.93;99714.30;109266;1253;75474;-69
2023/03/26 00:45:53;;;;;;;6.00;2.70;;;;;;;7.85;90.61;99721.48;109047;1252;69695;-69
2023/03/26 00:48:21;;;;;;;4.90;2.60;;;;;;;7.86;91.03;99720.48;109090;1253;72697;-69
2023/03/26 00:51:09;;;;;;;5.40;2.50;;;;;;;7.85;90.92;99722.30;106264;1258;61318;-73
2023/03/26 00:53:37;;;;;;;5.20;2.20;;;;;;;7.84;91.15;99720.37;107026;1256;61091;-73
2023/03/26 00:56:05;;;;;;;3.80;1.80;;;;;;;7.80;90.93;99726.08;105681;1259;72417;-71
2023/03/26 00:58:32;;;;;;;5.80;1.50;;;;;;;7.77;90.40;99731.52;106020;1253;71029;-71
2023/03/26 01:01:03;;;;;;;3.90;1.70;;;;;;;7.73;89.67;99740.21;106568;1256;73553;-70
2023/03/26 01:03:32;;;;;;;2.90;1.40;;;;;;;7.71;88.92;99734.73;106234;1256;61398;-71
2023/03/26 01:06:06;;;;;;;5.60;1.60;;;;;;;7.70;89.04;99738.70;106406;1253;61125;-71
2023/03/26 01:08:39;;;;;;;4.90;1.50;;;;;;;7.67;89.15;99742.19;106492;1256;73215;-70
2023/03/26 01:11:17;;;;;;;3.30;1.50;;;;;;;7.65;89.53;99744.15;106398;1256;70310;-70
2023/03/26 01:13:48;;;;;;;7.50;1.80;;;;;;;7.65;90.11;99744.42;106035;1254;72452;-72
2023/03/26 01:16:25;;;;;;;4.60;1.80;;;;;;;7.64;90.35;99742.62;105934;1256;62909;-71
2023/03/26 01:18:53;;;;;;;5.30;1.70;;;;;;;7.58;90.56;99751.23;106113;1253;61142;-71
2023/03/26 01:21:27;;;;;;;5.00;2.20;;;;;;;7.56;91.31;99744.70;106158;1253;74763;-70
2023/03/26 01:24:14;;;;;;;6.10;2.10;;;;;;;7.56;91.57;99750.90;106313;1253;69897;-69
2023/03/26 01:26:56;;;;;;;6.90;2.20;;;;;;;7.54;92.10;99754.09;106231;1254;71143;-70
2023/03/26 01:29:51;;;;;;;7.70;2.40;;;;;;;7.51;92.24;99752.48;105899;1256;61340;-69
2023/03/26 01:32:47;;;;;;;5.20;2.10;;;;;;;7.47;92.33;99755.13;106498;1253;59404;-72
2023/03/26 01:35:26;;;;;;;4.40;2.10;;;;;;;7.42;92.50;99748.84;106141;1254;73790;-71
2023/03/26 01:37:57;;;;;;;5.10;1.80;;;;;;;7.37;91.76;99751.20;106060;1253;70392;-71
2023/03/26 01:40:41;;;;;;;7.50;1.80;;;;;;;7.37;90.71;99740.08;106220;1256;72700;-71
2023/03/26 01:43:32;;;;;;;7.70;2.20;;;;;;;7.36;90.42;99740.58;106742;1253;62055;-71
2023/03/26 01:46:02;;;;;;;6.00;1.60;;;;;;;7.36;90.31;99741.77;105820;1253;61230;-71
2023/03/26 01:48:34;;;;;;;5.50;1.60;;;;;;;7.34;89.86;99746.54;105904;1253;73072;-70
2023/03/26 01:51:02;;;;;;;4.70;1.60;;;;;;;7.33;89.76;99743.80;106039;1254;71275;-71
2023/03/26 01:53:31;;;;;;;5.90;1.70;;;;;;;7.33;90.37;99740.35;105893;1256;72373;-72
2023/03/26 01:56:28;;;;;;;7.00;1.80;;;;;;;7.32;90.34;99740.48;106138;1253;61362;-70
2023/03/26 01:59:06;;;;;;;5.70;1.70;;;;;;;7.30;90.48;99741.22;106530;1253;61219;-70
2023/03/26 02:01:58;;;;;;;4.60;1.40;;;;;;;7.25;90.31;99746.14;106557;1254;74799;-71
2023/03/26 02:04:36;;;;;;;5.00;1.50;;;;;;;7.26;90.36;99741.98;105912;1256;71000;-71
2023/03/26 02:07:33;;;;;;;7.40;2.10;;;;;;;7.27;90.12;99734.16;106115;1254;71101;-70
2023/03/26 02:10:09;;;;;;;6.30;1.60;;;;;;;7.26;89.68;99733.65;106093;1256;61861;-71
2023/03/26 02:12:36;;;;;;;4.10;1.70;;;;;;;7.26;89.34;99731.84;106060;1257;61444;-70
2023/03/26 02:15:04;;;;;;;4.00;1.30;;;;;;;7.26;89.27;99734.10;105847;1253;73223;-71
2023/03/26 02:17:32;;;;;;;4.10;1.50;;;;;;;7.24;89.36;99731.41;106342;1256;69736;-69
2023/03/26 02:20:04;;;;;;;7.20;1.40;;;;;;;7.20;89.33;99733.41;106340;1253;71516;-71
2023/03/26 02:22:31;;;;;;;4.80;1.30;;;;;;;7.14;89.20;99732.86;105642;1260;61209;-70
2023/03/26 02:24:57;;;;;;;5.50;1.40;;;;;;;7.09;88.60;99730.40;106341;1253;62133;-69
2023/03/26 02:27:24;;;;;;;5.40;1.30;;;;;;;7.06;88.84;99729.45;106412;1254;61230;-72
2023/03/26 02:29:51;;;;;;;3.80;1.20;;;;;;;6.99;88.97;99724.73;105935;1253;69992;-73
2023/03/26 02:32:18;;;;;;;5.10;1.40;;;;;;;6.93;88.97;99730.64;105742;1256;71148;-73
2023/03/26 02:34:46;;;;;;;5.40;1.30;;;;;;;6.88;89.33;99730.58;105890;1258;61245;-69
2023/03/26 02:37:12;;;;;;;5.70;1.30;;;;;;;6.83;89.66;99736.79;106232;1254;61281;-69
2023/03/26 02:39:39;;;;;;;4.70;1.40;;;;;;;6.81;89.99;99731.75;105988;1254;74586;-71
2023/03/26 02:42:05;;;;;;;5.60;1.20;;;;;;;6.78;89.82;99736.43;105933;1256;61219;-73
2023/03/26 02:44:32;;;;;;;4.80;1.10;;;;;;;6.78;89.71;99733.27;105760;1258;61273;-70
2023/03/26 02:47:01;;;;;;;3.20;1.00;;;;;;;6.79;89.52;99734.95;105802;1258;61220;-70
2023/03/26 02:49:28;;;;;;;6.20;1.20;;;;;;;6.79;89.60;99729.67;106050;1253;61165;-70
2023/03/26 02:51:55;;;;;;;5.20;1.20;;;;;;;6.78;89.48;99745.36;105859;1258;61349;-72
2023/03/26 02:54:22;;;;;;;4.50;1.30;;;;;;;6.78;89.03;99738.87;107073;1256;69355;-70
2023/03/26 02:56:49;;;;;;;4.30;1.20;;;;;;;6.80;89.26;99734.41;105843;1253;71602;-74
2023/03/26 02:59:15;;;;;;;3.50;1.10;;;;;;;6.82;89.33;99734.73;106229;1254;61343;-69
2023/03/26 03:01:42;;;;;;;4.90;1.20;;;;;;;6.82;89.19;99739.28;106013;1256;61169;-71
2023/03/26 03:04:10;;;;;;;4.70;1.30;;;;;;;6.85;89.24;99740.02;105990;1253;73540;-70
2023/03/26 03:06:39;;;;;;;4.10;1.40;;;;;;;6.85;89.42;99732.67;105962;1253;70906;-72
2023/03/26 03:09:10;;;;;;;2.60;0.90;;;;;;;6.86;89.22;99731.10;106009;1256;71346;-71
2023/03/26 03:11:40;;;;;;;4.70;1.00;;;;;;;6.89;89.57;99736.77;106481;1253;61641;-70
2023/03/26 03:14:06;;;;;;;4.80;1.20;;;;;;;6.91;89.27;99730.23;106443;1254;60665;-72
2023/03/26 03:16:33;;;;;;;5.80;1.20;;;;;;;6.92;89.34;99727.61;105886;1253;72751;-70
2023/03/26 03:19:00;;;;;;;4.50;1.20;;;;;;;6.94;89.35;99730.04;106102;1256;61234;-71
2023/03/26 03:21:28;;;;;;;6.20;1.60;;;;;;;6.96;89.65;99715.95;106081;1257;70815;-73
2023/03/26 03:23:55;;;;;;;5.20;1.40;;;;;;;6.95;89.35;99712.89;106014;1256;62559;-69
2023/03/26 03:26:26;;;;;;;3.90;1.10;;;;;;;6.94;89.31;99715.92;106035;1253;61222;-69
2023/03/26 03:28:55;;;;;;;6.60;1.10;;;;;;;6.94;89.55;99709.15;106127;1254;74218;-69
2023/03/26 03:31:23;;;;;;;4.90;1.10;;;;;;;6.91;89.60;99712.98;106757;1253;71301;-69
2023/03/26 03:33:51;;;;;;;4.30;1.30;;;;;;;6.90;89.11;99707.66;105773;1257;71154;-70
2023/03/26 03:36:22;;;;;;;5.50;1.30;;;;;;;6.87;88.84;99704.77;106140;1257;61898;-70
2023/03/26 03:38:49;;;;;;;6.60;1.40;;;;;;;6.85;88.39;99708.41;105898;1259;61218;-67
2023/03/26 03:41:17;;;;;;;3.70;1.20;;;;;;;6.82;88.11;99712.98;105827;1256;73219;-74
2023/03/26 03:43:44;;;;;;;3.90;1.00;;;;;;;6.77;86.57;99712.65;105987;1253;72244;-69
2023/03/26 03:46:11;;;;;;;5.00;1.00;;;;;;;6.75;86.09;99710.71;105965;1258;72390;-70
2023/03/26 03:48:38;;;;;;;3.80;1.00;;;;;;;6.74;85.00;99711.52;107143;1253;61606;-69
2023/03/26 03:51:05;;;;;;;3.90;1.00;;;;;;;6.76;84.36;99714.38;105877;1258;61211;-70
2023/03/26 03:53:35;;;;;;;4.90;1.00;;;;;;;6.76;83.21;99715.79;105830;1258;74689;-70
2023/03/26 03:56:03;;;;;;;4.60;1.20;;;;;;;6.76;83.02;99712.62;106566;1256;69711;-71
2023/03/26 03:58:30;;;;;;;4.60;1.10;;;;;;;6.75;82.88;99712.89;106226;1257;72799;-71
2023/03/26 04:00:59;;;;;;;3.50;1.20;;;;;;;6.73;82.85;99710.98;106084;1253;62816;-70
2023/03/26 04:03:27;;;;;;;5.40;1.10;;;;;;;6.71;83.04;99715.41;106016;1254;61272;-70
2023/03/26 04:06:00;;;;;;;4.30;1.10;;;;;;;6.68;83.47;99715.58;107067;1256;73145;-72
2023/03/26 04:08:26;;;;;;;4.70;1.40;;;;;;;6.66;83.66;99716.54;105937;1257;68942;-71
2023/03/26 04:10:53;;;;;;;5.10;1.20;;;;;;;6.62;84.15;99720.84;106334;1253;73508;-70
2023/03/26 04:13:20;;;;;;;6.20;1.30;;;;;;;6.58;84.77;99720.11;105890;1257;61971;-72
2023/03/26 04:15:47;;;;;;;3.70;1.10;;;;;;;6.52;85.36;99718.95;105938;1256;61363;-72
2023/03/26 04:18:14;;;;;;;6.40;1.20;;;;;;;6.47;85.98;99718.11;106276;1252;74827;-70
2023/03/26 04:20:45;;;;;;;4.90;1.20;;;;;;;6.41;86.30;99717.63;106266;1258;70937;-69
2023/03/26 04:23:17;;;;;;;4.90;1.40;;;;;;;6.37;87.53;99722.95;106773;1253;72807;-71
2023/03/26 04:25:47;;;;;;;5.50;1.40;;;;;;;6.33;88.32;99719.83;106044;1256;61260;-69
2023/03/26 04:28:41;;;;;;;6.50;1.50;;;;;;;6.30;89.03;99719.18;105975;1254;61251;-70
2023/03/26 04:31:14;;;;;;;7.00;1.80;;;;;;;6.25;89.96;99721.42;105797;1256;73490;-71
2023/03/26 04:33:47;;;;;;;5.40;1.80;;;;;;;6.22;90.50;99719.23;106032;1253;71173;-71
2023/03/26 04:36:15;;;;;;;6.40;1.60;;;;;;;6.21;91.02;99720.83;106020;1257;71343;-71
2023/03/26 04:38:44;;;;;;;7.00;1.60;;;;;;;6.23;91.09;99718.39;106704;1257;61276;-70
2023/03/26 04:41:12;;;;;;;6.70;1.90;;;;;;;6.25;91.18;99716.41;106767;1254;61304;-71
2023/03/26 04:43:41;;;;;;;6.00;1.60;;;;;;;6.28;91.53;99710.23;105776;1258;72488;-69
2023/03/26 04:46:09;;;;;;;4.50;1.60;;;;;;;6.31;91.45;99711.43;107000;1255;70063;-71
2023/03/26 04:48:37;;;;;;;6.40;1.60;;;;;;;6.37;91.77;99709.09;105782;1259;72508;-70
2023/03/26 04:51:08;;;;;;;5.80;1.70;;;;;;;6.42;91.79;99710.05;105684;1257;61698;-70
2023/03/26 04:53:36;;;;;;;7.50;1.80;;;;;;;6.47;91.45;99707.17;105764;1257;61296;-74
2023/03/26 04:56:22;;;;;;;5.80;1.60;;;;;;;6.53;90.97;99705.67;106169;1258;74717;-70
2023/03/26 04:58:50;;;;;;;6.90;1.70;;;;;;;6.60;90.79;99704.97;107130;1254;70999;-70
2023/03/26 05:01:17;;;;;;;7.20;1.60;;;;;;;6.63;90.14;99707.73;107572;1254;72127;-68
2023/03/26 05:03:44;;;;;;;4.20;1.50;;;;;;;6.67;89.68;99706.22;108261;1256;59677;-69
2023/03/26 05:06:12;;;;;;;8.70;1.60;;;;;;;6.71;88.96;99703.86;105997;1254;59926;-70
2023/03/26 05:08:40;;;;;;;5.00;1.40;;;;;;;6.77;88.50;99697.55;106263;1256;74692;-70
2023/03/26 05:11:10;;;;;;;6.20;1.40;;;;;;;6.81;87.90;99695.20;106012;1258;73347;-71
2023/03/26 05:13:38;;;;;;;3.70;1.20;;;;;;;6.83;86.89;99700.40;106182;1257;71466;-69
2023/03/26 05:16:05;;;;;;;5.30;1.40;;;;;;;6.85;86.55;99694.34;107523;1257;61247;-71
2023/03/26 05:18:32;;;;;;;4.40;1.10;;;;;;;6.87;86.44;99697.59;105910;1254;61676;-70
2023/03/26 05:20:59;;;;;;;4.80;1.20;;;;;;;6.85;85.66;99698.17;106012;1258;74406;-74
2023/03/26 05:23:25;;;;;;;6.40;1.60;;;;;;;6.87;85.57;99695.15;105873;1257;70978;-72
2023/03/26 05:25:52;;;;;;;5.20;1.60;;;;;;;6.87;85.85;99697.59;106244;1259;70342;-69
2023/03/26 05:28:23;;;;;;;4.80;1.70;;;;;;;6.86;85.91;99697.86;105950;1258;61502;-73
2023/03/26 05:30:53;;;;;;;4.70;1.70;;;;;;;6.84;85.91;99696.93;106248;1258;61247;-69
2023/03/26 05:33:21;;;;;;;5.70;1.40;;;;;;;6.84;86.41;99698.35;106868;1251;74727;-70
2023/03/26 05:36:02;;;;;;;6.80;1.80;;;;;;;6.85;86.92;99696.65;106404;1254;332060;-70
2023/03/26 05:38:29;;;;;;;6.00;1.60;;;;;;;6.87;86.83;99691.46;105973;1253;73553;-71
2023/03/26 05:40:58;;;;;;;6.50;1.80;;;;;;;6.88;87.00;99691.73;106177;1255;61229;-70
2023/03/26 05:43:25;;;;;;;5.00;1.60;;;;;;;6.88;86.75;99694.28;105628;1258;61601;-73
2023/03/26 05:45:52;;;;;;;6.80;1.70;;;;;;;6.89;86.78;99696.52;106063;1258;74754;-70
2023/03/26 05:48:20;;;;;;;4.90;1.80;;;;;;;6.89;86.71;99695.03;106128;1255;70321;-73
2023/03/26 05:50:48;;;;;;;6.40;2.00;;;;;;;6.91;86.48;99696.41;106351;1255;71142;-70
2023/03/26 05:53:17;;;;;;;4.50;1.90;;;;;;;6.93;86.57;99695.86;106318;1253;61347;-71
2023/03/26 05:55:45;;;;;;;7.10;2.50;;;;;;;6.94;86.98;99698.17;107525;1256;61157;-71
2023/03/26 05:58:12;;;;;;;7.80;2.20;;;;;;;6.98;86.87;99697.16;106248;1256;74514;-73
2023/03/26 06:00:39;;;;;;;7.00;2.30;;;;;;;7.02;87.00;99693.62;106062;1257;71144;-70
2023/03/26 06:03:11;;;;;;;9.20;2.10;;;;;;;7.05;86.56;99693.84;105981;1251;72668;-70
2023/03/26 06:05:39;;;;;;;8.50;2.80;;;;;;;7.10;86.88;99691.79;105898;1258;61258;-75
2023/03/26 06:08:06;;;;;;;5.90;2.60;;;;;;;7.14;86.62;99691.17;106677;1261;62377;-70
2023/03/26 06:10:36;;;;;;;8.50;2.50;;;;;;;7.20;86.87;99689.92;105951;1257;75938;-70
2023/03/26 06:13:03;;;;;;;5.40;2.40;;;;;;;7.24;86.79;99688.11;106838;1254;71110;-70
2023/03/26 06:15:30;;;;;;;9.80;3.00;;;;;;;7.28;86.21;99684.63;105855;1255;71900;-75
2023/03/26 06:17:56;;;;;;;7.40;2.70;;;;;;;7.32;86.25;99687.02;106130;1259;61271;-73
2023/03/26 06:20:23;;;;;;;8.00;2.50;;;;;;;7.33;86.92;99679.50;105925;1254;61716;-71
2023/03/26 06:22:50;;;;;;;6.50;2.30;;;;;;;7.36;87.02;99682.84;106037;1258;73289;-70
2023/03/26 06:25:17;;;;;;;6.40;2.50;;;;;;;7.37;86.49;99676.07;106344;1258;71154;-71
2023/03/26 06:27:44;;;;;;;7.30;2.50;;;;;;;7.36;86.38;99678.41;106312;1259;73226;-71
2023/03/26 06:30:11;;;;;;;6.30;2.40;;;;;;;7.38;86.33;99679.69;106881;1256;61257;-72
2023/03/26 06:32:38;;;;;;;5.40;2.20;;;;;;;7.41;86.37;99675.44;105796;1259;61219;-71
2023/03/26 06:35:05;;;;;;;8.40;2.50;;;;;;;7.46;86.60;99675.91;106144;1258;72847;-71
2023/03/26 06:37:32;;;;;;;6.90;2.50;;;;;;;7.48;86.04;99673.54;106842;1254;69832;-73
2023/03/26 06:39:59;;;;;;;6.70;2.20;;;;;;;7.51;86.61;99673.02;106029;1255;72527;-74
2023/03/26 06:42:26;;;;;;;6.30;2.10;;;;;;;7.53;86.14;99672.61;106105;1257;61250;-72
2023/03/26 06:45:13;;;;;;;5.60;2.40;;;;;;;7.56;85.69;99670.47;106437;1267;61129;-71
2023/03/26 06:47:40;;;;;;;11.10;2.40;;;;;;;7.61;85.57;99668.02;106675;1257;74761;-71
2023/03/26 06:50:07;;;;;;;8.90;2.50;;;;;;;7.65;85.94;99669.39;105969;1254;71167;-71
2023/03/26 06:52:34;;;;;;;7.30;2.40;;;;;;;7.67;85.61;99663.34;106137;1254;71108;-71
2023/03/26 06:55:01;;;;;;;6.40;2.20;;;;;;;7.73;86.03;99664.55;106116;1256;61668;-72
2023/03/26 06:57:27;;;;;;;7.40;2.30;;;;;;;7.77;85.61;99663.59;106179;1254;61370;-71
2023/03/26 06:59:54;;;;;;;8.10;2.40;;;;;;;7.84;85.65;99668.80;106558;1257;73602;-71
2023/03/26 07:02:21;;;;;;;8.60;2.30;;;;;;;7.85;84.32;99666.70;108072;1254;69217;-71
2023/03/26 07:04:47;;;;;;;6.50;2.10;;;;;;;7.86;84.11;99662.17;106950;1254;72810;-70
2023/03/26 07:07:14;;;;;;;6.70;2.00;;;;;;;7.93;83.57;99658.71;106792;1254;61870;-70
2023/03/26 07:09:41;;;;;;;6.10;1.60;;;;;;;7.98;83.18;99664.44;106192;1251;61265;-71
2023/03/26 07:12:08;;;;;;;5.90;1.80;;;;;;;8.03;83.20;99657.58;106918;1253;74738;-71
2023/03/26 07:14:37;;;;;;;6.70;1.80;;;;;;;8.10;83.12;99658.09;107692;1251;71482;-69
2023/03/26 07:17:04;;;;;;;6.40;1.90;;;;;;;8.12;82.13;99656.61;108402;1253;71463;-70
2023/03/26 07:19:31;;;;;;;7.50;1.90;;;;;;;8.17;82.01;99656.14;107817;1253;61292;-70
2023/03/26 07:21:58;;;;;;;7.50;1.80;;;;;;;8.22;81.82;99655.99;107979;1254;61095;-71
2023/03/26 07:24:26;;;;;;;8.40;2.00;;;;;;;8.25;80.92;99650.66;107878;1260;73617;-71
2023/03/26 07:27:06;;;;;;;7.50;1.90;;;;;;;8.31;81.27;99647.08;107121;1254;72108;-71
2023/03/26 07:29:51;;;;;;;6.30;1.80;;;;;;;8.41;80.11;99642.61;107027;1253;73350;-70
2023/03/26 07:32:33;;;;;;;8.30;1.70;;;;;;;8.47;80.12;99635.90;107100;1254;59684;-71
2023/03/26 07:35:30;;;;;;;7.80;1.70;;;;;;;8.56;80.00;99633.51;106687;1258;61268;-70
2023/03/26 07:38:30;;;;;;;7.20;1.90;;;;;;;8.70;80.30;99627.98;106787;1254;73560;-69
2023/03/26 07:41:19;;;;;;;6.50;2.00;;;;;;;8.76;78.63;99630.52;106968;1254;69991;-70
2023/03/26 07:44:11;;;;;;;5.50;2.00;;;;;;;8.76;77.44;99634.36;107675;1254;71219;-70
2023/03/26 07:46:38;;;;;;;7.20;1.90;;;;;;;8.84;77.33;99632.88;108483;1254;59983;-71
2023/03/26 07:49:05;;;;;;;7.70;2.10;;;;;;;8.92;77.40;99637.86;107055;1257;61214;-70
2023/03/26 07:51:32;;;;;;;6.50;1.70;;;;;;;8.94;76.79;99639.20;106796;1251;73545;-71
2023/03/26 07:53:59;;;;;;;5.60;1.80;;;;;;;8.95;76.54;99636.68;106321;1254;70911;-71
2023/03/26 07:56:35;;;;;;;8.00;1.70;;;;;;;9.01;76.72;99631.38;107395;1252;71149;-70
2023/03/26 07:59:42;;;;;;;7.00;2.30;;;;;;;9.05;76.71;99632.17;107281;1254;61215;-70
2023/03/26 08:02:31;;;;;;;6.60;1.80;;;;;;;9.15;76.32;99625.20;107736;1253;61134;-71
2023/03/26 08:05:18;;;;;;;9.20;2.60;;;;;;;9.27;76.10;99624.52;107551;1254;73541;-72
2023/03/26 08:07:51;;;;;;;5.40;1.80;;;;;;;9.42;75.53;99618.88;107057;1254;69992;-70
2023/03/26 08:10:40;;;;;;;6.80;1.80;;;;;;;9.50;74.67;99619.88;107027;1254;71481;-71
2023/03/26 08:13:18;;;;;;;6.90;1.90;;;;;;;9.61;74.55;99621.56;106630;1254;61244;-70
2023/03/26 08:16:04;;;;;;;6.20;1.70;;;;;;;9.69;74.17;99618.42;106988;1254;60212;-70
2023/03/26 08:18:45;;;;;;;6.50;1.60;;;;;;;9.75;73.55;99616.55;106849;1254;74850;-71
2023/03/26 08:21:21;;;;;;;5.90;1.50;;;;;;;9.81;73.26;99615.30;107215;1254;70115;-70
2023/03/26 08:24:18;;;;;;;5.00;1.60;;;;;;;9.87;72.47;99618.23;106624;1254;72722;-71
2023/03/26 08:26:58;;;;;;;6.30;1.50;;;;;;;9.96;72.04;99618.08;106938;1254;61834;-71
2023/03/26 08:29:50;;;;;;;9.00;2.00;;;;;;;10.08;71.60;99616.11;107182;1254;61161;-70
2023/03/26 08:32:18;;;;;;;5.50;1.40;;;;;;;10.13;70.46;99616.14;107136;1253;73185;-70
2023/03/26 08:34:45;;;;;;;5.90;1.50;;;;;;;10.23;70.22;99614.46;106964;1254;69779;-70
2023/03/26 08:37:12;;;;;;;7.40;1.30;;;;;;;10.33;69.48;99620.55;107104;1253;71417;-70
2023/03/26 08:39:40;;;;;;;4.60;1.70;;;;;;;10.39;68.76;99620.01;107321;1254;61276;-70
2023/03/26 08:42:39;;;;;;;5.60;1.20;;;;;;;10.43;68.24;99619.69;107877;1253;61051;-70
2023/03/26 08:45:32;;;;;;;4.90;1.60;;;;;;;10.47;68.01;99621.82;106954;1254;75451;-72
2023/03/26 08:48:16;;;;;;;4.80;1.40;;;;;;;10.49;67.27;99618.92;107287;1254;70129;-71
2023/03/26 08:51:12;;;;;;;5.80;1.30;;;;;;;10.58;67.38;99617.39;106399;1251;72811;-72
2023/03/26 08:53:55;;;;;;;5.40;1.60;;;;;;;10.67;66.34;99617.48;106333;1253;61122;-70
2023/03/26 08:56:38;;;;;;;4.70;1.50;;;;;;;10.75;66.54;99620.16;106737;1254;61207;-70
2023/03/26 08:59:29;;;;;;;3.70;1.30;;;;;;;10.96;66.23;99618.37;107187;1253;74476;-72
2023/03/26 09:02:10;;;;;;;5.60;1.40;;;;;;;11.10;65.63;99615.80;106422;1254;69229;-71
2023/03/26 09:04:52;;;;;;;4.90;1.50;;;;;;;11.23;65.54;99613.27;107421;1254;72688;-73
2023/03/26 09:07:45;;;;;;;4.40;1.40;;;;;;;11.34;65.27;99608.99;106121;1257;61414;-70
2023/03/26 09:10:18;;;;;;;4.20;1.20;;;;;;;11.50;65.23;99605.91;106795;1254;61365;-68
2023/03/26 09:12:48;;;;;;;4.80;1.40;;;;;;;11.62;64.48;99602.65;107919;1254;73834;-71
2023/03/26 09:16:15;;;;;;;5.20;1.00;;;;;;;11.60;63.21;99602.16;106143;1253;71223;-70
2023/03/26 09:19:27;;;;;;;5.90;1.50;;;;;;;11.69;63.11;99597.80;105218;1263;71127;-70
2023/03/26 09:22:25;;;;;;;6.90;1.20;;;;;;;11.94;63.30;99596.52;105461;1256;61870;-72
2023/03/26 09:25:12;;;;;;;5.30;1.10;;;;;;;11.99;63.70;99598.18;106375;1254;61322;-70
2023/03/26 09:27:49;;;;;;;3.00;1.20;;;;;;;11.95;63.17;99597.88;106800;1252;74923;-69
2023/03/26 09:30:27;;;;;;;5.00;1.30;;;;;;;11.86;62.72;99597.44;105959;1254;71057;-69
2023/03/26 09:33:30;;;;;;;4.70;1.20;;;;;;;11.78;63.25;99599.79;106076;1254;73682;-72
2023/03/26 09:36:45;;;;;;;4.00;1.50;;;;;;;11.71;63.43;99601.11;106469;1253;61746;-69
2023/03/26 09:39:45;;;;;;;3.70;1.00;;;;;;;11.60;63.83;99599.93;106552;1259;61362;-70
2023/03/26 09:42:41;;;;;;;5.90;1.30;;;;;;;11.50;64.12;99598.97;105769;1254;73804;-70
2023/03/26 09:45:16;;;;;;;4.10;1.30;;;;;;;11.45;65.05;99600.40;106025;1251;71005;-70
2023/03/26 09:48:04;;;;;;;4.40;1.70;;;;;;;11.37;66.53;99600.17;105949;1254;71559;-73
2023/03/26 09:50:41;;;;;;;6.10;1.60;;;;;;;11.21;67.33;99598.73;105851;1252;61335;-73
2023/03/26 09:53:29;;;;;;;5.20;1.50;;;;;;;11.07;68.08;99598.41;105994;1253;61239;-70
2023/03/26 09:56:10;;;;;;;6.00;1.80;;;;;;;11.02;68.82;99596.86;106253;1251;73979;-69
2023/03/26 09:58:37;;;;;;;5.50;1.80;;;;;;;10.98;68.78;99600.61;106317;1253;71319;-71
2023/03/26 10:01:13;;;;;;;5.60;1.70;;;;;;;10.96;69.47;99597.14;106445;1254;61353;-69
2023/03/26 10:04:16;;;;;;;4.20;1.40;;;;;;;10.98;69.87;99594.69;105962;1253;61355;-72
2023/03/26 10:06:53;;;;;;;6.20;1.90;;;;;;;11.06;70.12;99588.73;108569;1253;59199;-71
2023/03/26 10:09:36;;;;;;;5.70;2.00;;;;;;;11.18;69.38;99590.43;106810;1254;75621;-72
2023/03/26 10:12:35;;;;;;;6.50;2.30;;;;;;;11.29;68.42;99588.63;106940;1254;69044;-73
2023/03/26 10:15:31;;;;;;;6.20;2.10;;;;;;;11.45;67.80;99586.55;106636;1251;71151;-74
2023/03/26 10:18:26;;;;;;;6.10;2.00;;;;;;;11.56;67.55;99586.23;106384;1254;61792;-72
2023/03/26 10:21:11;;;;;;;6.60;2.10;;;;;;;11.68;67.69;99586.25;106973;1253;61351;-72
2023/03/26 10:23:44;;;;;;;6.10;2.20;;;;;;;11.83;67.48;99582.34;106663;1255;73676;-73
2023/03/26 10:26:29;;;;;;;8.30;2.70;;;;;;;11.89;66.66;99579.19;106375;1254;69674;-72
2023/03/26 10:29:15;;;;;;;6.00;2.20;;;;;;;11.94;66.43;99580.75;106060;1253;71442;-72
2023/03/26 10:31:43;;;;;;;6.60;2.20;;;;;;;11.96;66.48;99578.68;106516;1252;61708;-72
2023/03/26 10:34:43;;;;;;;7.50;2.40;;;;;;;11.96;66.62;99576.81;106463;1253;61689;-71
2023/03/26 10:37:19;;;;;;;7.10;2.40;;;;;;;12.04;66.89;99572.11;106494;1253;75464;-74
2023/03/26 10:40:19;;;;;;;7.30;2.70;;;;;;;12.05;65.50;99572.08;106247;1253;69899;-72
2023/03/26 10:43:16;;;;;;;6.30;2.60;;;;;;;11.93;64.70;99572.98;108081;1254;72920;-72
2023/03/26 10:45:45;;;;;;;7.60;2.20;;;;;;;11.87;65.67;99574.00;108509;1254;62153;-72
2023/03/26 10:48:24;;;;;;;5.80;2.50;;;;;;;11.81;65.40;99576.84;108739;1252;60232;-70
2023/03/26 10:51:02;;;;;;;5.70;2.50;;;;;;;11.73;65.31;99573.47;108502;1252;72987;-73
2023/03/26 10:53:46;;;;;;;7.10;2.40;;;;;;;11.69;65.50;99573.05;109098;1254;69955;-73
2023/03/26 10:56:34;;;;;;;6.60;2.10;;;;;;;11.76;65.69;99569.95;108348;1252;73625;-73
2023/03/26 10:59:06;;;;;;;6.00;2.00;;;;;;;11.76;65.11;99568.64;105638;1254;62046;-73
2023/03/26 11:01:54;;;;;;;4.50;2.20;;;;;;;11.78;65.87;99566.22;105803;1254;61298;-72
2023/03/26 11:04:39;;;;;;;7.10;2.30;;;;;;;11.81;65.59;99566.85;106095;1256;73514;-71
2023/03/26 11:07:29;;;;;;;5.60;1.90;;;;;;;11.82;65.28;99560.61;105814;1253;69929;-71
2023/03/26 11:10:07;;;;;;;8.60;2.70;;;;;;;11.85;64.79;99559.08;105949;1257;72394;-71
2023/03/26 11:12:33;;;;;;;6.10;2.00;;;;;;;11.91;65.10;99559.82;105794;1257;62266;-72
2023/03/26 11:15:21;;;;;;;7.30;2.30;;;;;;;11.93;64.35;99562.76;105922;1252;61237;-71
2023/03/26 11:18:06;;;;;;;5.30;2.10;;;;;;;12.00;64.06;99557.48;105838;1254;73220;-73
2023/03/26 11:20:54;;;;;;;6.40;2.50;;;;;;;12.16;63.94;99552.79;106357;1256;69679;-70
2023/03/26 11:23:58;;;;;;;5.20;2.20;;;;;;;12.40;62.29;99553.98;105849;1252;77115;-71
2023/03/26 11:26:54;;;;;;;5.70;2.20;;;;;;;12.63;62.42;99551.21;105910;1257;61352;-72
2023/03/26 11:29:56;;;;;;;5.40;2.00;;;;;;;12.92;61.68;99549.02;105909;1253;61234;-73
2023/03/26 11:32:30;;;;;;;8.30;2.00;;;;;;;13.20;60.58;99549.20;105726;1257;74735;-73
2023/03/26 11:35:04;;;;;;;6.80;2.10;;;;;;;13.44;60.04;99545.95;105901;1254;71171;-72
2023/03/26 11:37:41;;;;;;;5.50;2.00;;;;;;;13.69;60.24;99542.38;106173;1254;71508;-73
2023/03/26 11:40:19;;;;;;;5.20;1.80;;;;;;;13.92;58.74;99545.33;105898;1254;61608;-73
2023/03/26 11:42:48;;;;;;;6.20;2.00;;;;;;;14.10;58.89;99547.15;105686;1254;61227;-73
2023/03/26 11:45:19;;;;;;;7.10;2.00;;;;;;;14.16;57.91;99549.93;105887;1253;74403;-74
2023/03/26 11:48:02;;;;;;;5.00;2.00;;;;;;;14.16;58.05;99547.92;105667;1260;71185;-73
2023/03/26 11:50:34;;;;;;;5.40;1.90;;;;;;;14.22;57.96;99542.96;105825;1257;71457;-72
2023/03/26 11:53:11;;;;;;;5.30;1.70;;;;;;;14.18;56.51;99545.61;105733;1257;61361;-73
2023/03/26 11:55:43;;;;;;;5.10;2.10;;;;;;;14.07;56.37;99545.88;106251;1254;61744;-73
2023/03/26 11:58:38;;;;;;;4.10;1.60;;;;;;;13.88;56.06;99544.01;105734;1257;74749;-73
2023/03/26 12:01:16;;;;;;;4.30;1.60;;;;;;;13.74;56.82;99543.10;105775;1257;70187;-72
2023/03/26 12:04:02;;;;;;;5.00;1.70;;;;;;;13.64;56.76;99537.44;105577;1253;71984;-73
2023/03/26 12:06:29;;;;;;;6.10;2.10;;;;;;;13.64;57.13;99535.35;105862;1257;62268;-72
2023/03/26 12:08:56;;;;;;;5.10;1.60;;;;;;;13.68;57.28;99532.75;105799;1255;61241;-73